4XHRO LLRS-LLRS
Flight info
| Callsign | 4XHRO |
|---|---|
| Flight time | 0h 59m |
| Altitude | 3500 |
| Route | BOVED SIRINI NSHRM GAVRI AYLON |
| Aircraft | SIRA/L-SDE2E3FGHIRWXY/LB1 |
Departure
| Time | 2026-04-27 16:26 |
|---|---|
| Airport | Rishon Lezion Airfield (LLRS) |
Arrival
| Time | 2026-04-27 17:25 |
|---|---|
| Airport | Rishon Lezion Airfield (LLRS) |
| Time | Latitude | Longitude | Altitude | Speed | Heading |
|---|---|---|---|---|---|
| 2026-04-27 16:23 | 31.93374 | 34.76072 | 474 ft | 98 kts | 149° |
| 2026-04-27 16:24 | 31.92946 | 34.76390 | 437 ft | 97 kts | 152° |
| 2026-04-27 16:24 | 31.91765 | 34.77202 | 347 ft | 96 kts | 135° |
| 2026-04-27 16:25 | 31.91679 | 34.78570 | 454 ft | 81 kts | 72° |
| 2026-04-27 16:25 | 31.91964 | 34.79893 | 545 ft | 88 kts | 70° |
| 2026-04-27 16:26 | 31.92188 | 34.81358 | 658 ft | 98 kts | 70° |
| 2026-04-27 16:26 | 31.92076 | 34.83013 | 805 ft | 109 kts | 95° |
| 2026-04-27 16:27 | 31.91816 | 34.84751 | 977 ft | 109 kts | 96° |
| 2026-04-27 16:27 | 31.91036 | 34.87331 | 1085 ft | 113 kts | 99° |
| 2026-04-27 16:28 | 31.90853 | 34.89169 | 1036 ft | 115 kts | 97° |
| 2026-04-27 16:28 | 31.90271 | 34.90847 | 1110 ft | 105 kts | 122° |
| 2026-04-27 16:29 | 31.88837 | 34.92857 | 1258 ft | 111 kts | 125° |
| 2026-04-27 16:30 | 31.87820 | 34.94342 | 1158 ft | 116 kts | 126° |
| 2026-04-27 16:30 | 31.86707 | 34.95702 | 1201 ft | 118 kts | 140° |
| 2026-04-27 16:31 | 31.84640 | 34.97250 | 1176 ft | 112 kts | 142° |
| 2026-04-27 16:31 | 31.83462 | 34.98353 | 1312 ft | 109 kts | 136° |
| 2026-04-27 16:32 | 31.82579 | 34.99812 | 1333 ft | 115 kts | 101° |
| 2026-04-27 16:32 | 31.82378 | 35.00728 | 1451 ft | 113 kts | 111° |
| 2026-04-27 16:33 | 31.81250 | 35.00856 | 2006 ft | 78 kts | 230° |
| 2026-04-27 16:33 | 31.80839 | 35.00361 | 2042 ft | 90 kts | 236° |
| 2026-04-27 16:33 | 31.80471 | 34.99916 | 2078 ft | 56 kts | 234° |
| 2026-04-27 16:33 | 31.80150 | 34.99935 | 1752 ft | 89 kts | 139° |
| 2026-04-27 16:34 | 31.79688 | 35.00364 | 1803 ft | 83 kts | 171° |
| 2026-04-27 16:34 | 31.79475 | 34.99989 | 1783 ft | 75 kts | 323° |
| 2026-04-27 16:34 | 31.79991 | 34.99959 | 1817 ft | 67 kts | 328° |
| 2026-04-27 16:34 | 31.80297 | 34.99737 | 1792 ft | 46 kts | 288° |
| 2026-04-27 16:35 | 31.80325 | 34.99158 | 1726 ft | 75 kts | 295° |
| 2026-04-27 16:35 | 31.80501 | 34.99320 | 1921 ft | 71 kts | 144° |
| 2026-04-27 16:35 | 31.79727 | 34.98944 | 2163 ft | 64 kts | 274° |
| 2026-04-27 16:36 | 31.79685 | 34.98438 | 2263 ft | 59 kts | 276° |
| 2026-04-27 16:36 | 31.79571 | 34.98358 | 1732 ft | 99 kts | 108° |
| 2026-04-27 16:36 | 31.79331 | 34.99020 | 1988 ft | 91 kts | 108° |
| 2026-04-27 16:36 | 31.78924 | 34.99616 | 2069 ft | 103 kts | 153° |
| 2026-04-27 16:37 | 31.78198 | 34.99661 | 2030 ft | 106 kts | 208° |
| 2026-04-27 16:37 | 31.77737 | 34.99068 | 1993 ft | 101 kts | 261° |
| 2026-04-27 16:37 | 31.77923 | 34.98352 | 2025 ft | 93 kts | 324° |
| 2026-04-27 16:37 | 31.78567 | 34.98233 | 2024 ft | 99 kts | 14° |
| 2026-04-27 16:38 | 31.79078 | 34.98744 | 2041 ft | 107 kts | 57° |
| 2026-04-27 16:38 | 31.79184 | 34.99620 | 2041 ft | 111 kts | 91° |
| 2026-04-27 16:38 | 31.79547 | 35.00304 | 2022 ft | 97 kts | 0° |
| 2026-04-27 16:38 | 31.79950 | 34.99832 | 1991 ft | 103 kts | 263° |
| 2026-04-27 16:39 | 31.79398 | 34.99407 | 1868 ft | 113 kts | 155° |
| 2026-04-27 16:39 | 31.79239 | 35.00096 | 2012 ft | 94 kts | 43° |
| 2026-04-27 16:39 | 31.79828 | 35.00185 | 2065 ft | 89 kts | 344° |
| 2026-04-27 16:39 | 31.80444 | 34.99961 | 2098 ft | 95 kts | 339° |
| 2026-04-27 16:40 | 31.81093 | 34.99704 | 2140 ft | 98 kts | 337° |
| 2026-04-27 16:40 | 31.81478 | 34.99150 | 2157 ft | 98 kts | 269° |
| 2026-04-27 16:40 | 31.81029 | 34.98600 | 2233 ft | 108 kts | 186° |
| 2026-04-27 16:40 | 31.80362 | 34.99028 | 2171 ft | 113 kts | 131° |
| 2026-04-27 16:41 | 31.80339 | 34.99817 | 2204 ft | 105 kts | 42° |
| 2026-04-27 16:41 | 31.81013 | 34.99954 | 2242 ft | 98 kts | 351° |
| 2026-04-27 16:41 | 31.81539 | 34.99597 | 2288 ft | 95 kts | 281° |
| 2026-04-27 16:41 | 31.81111 | 34.99032 | 2171 ft | 115 kts | 177° |
| 2026-04-27 16:42 | 31.80524 | 34.99596 | 2208 ft | 107 kts | 124° |
| 2026-04-27 16:42 | 31.80167 | 35.00261 | 2320 ft | 86 kts | 117° |
| 2026-04-27 16:42 | 31.80010 | 35.00887 | 2323 ft | 77 kts | 66° |
| 2026-04-27 16:42 | 31.80431 | 35.01038 | 2200 ft | 76 kts | 313° |
| 2026-04-27 16:43 | 31.80432 | 35.00433 | 2181 ft | 74 kts | 257° |
| 2026-04-27 16:43 | 31.80261 | 34.99891 | 2173 ft | 73 kts | 252° |
| 2026-04-27 16:43 | 31.80094 | 34.99316 | 2180 ft | 75 kts | 253° |
| 2026-04-27 16:43 | 31.79787 | 34.98749 | 2097 ft | 90 kts | 231° |
| 2026-04-27 16:44 | 31.79452 | 34.98187 | 2119 ft | 76 kts | 279° |
| 2026-04-27 16:44 | 31.79793 | 34.97816 | 2108 ft | 74 kts | 341° |
| 2026-04-27 16:44 | 31.80284 | 34.97624 | 2151 ft | 79 kts | 342° |
| 2026-04-27 16:44 | 31.80822 | 34.97429 | 2187 ft | 79 kts | 342° |
| 2026-04-27 16:45 | 31.81341 | 34.97231 | 2159 ft | 85 kts | 341° |
| 2026-04-27 16:45 | 31.81961 | 34.96981 | 2033 ft | 100 kts | 340° |
| 2026-04-27 16:45 | 31.82636 | 34.96714 | 1906 ft | 104 kts | 343° |
| 2026-04-27 16:45 | 31.83338 | 34.96456 | 1759 ft | 105 kts | 343° |
| 2026-04-27 16:46 | 31.84012 | 34.96128 | 1582 ft | 109 kts | 336° |
| 2026-04-27 16:46 | 31.84699 | 34.95754 | 1455 ft | 108 kts | 338° |
| 2026-04-27 16:46 | 31.85385 | 34.95419 | 1405 ft | 105 kts | 338° |
| 2026-04-27 16:46 | 31.86049 | 34.95086 | 1380 ft | 105 kts | 338° |
| 2026-04-27 16:47 | 31.86711 | 34.94733 | 1372 ft | 103 kts | 333° |
| 2026-04-27 16:47 | 31.87332 | 34.94296 | 1275 ft | 105 kts | 328° |
| 2026-04-27 16:47 | 31.87904 | 34.93838 | 1281 ft | 104 kts | 325° |
| 2026-04-27 16:47 | 31.88511 | 34.93378 | 1253 ft | 102 kts | 324° |
| 2026-04-27 16:48 | 31.89091 | 34.92888 | 1150 ft | 104 kts | 317° |
| 2026-04-27 16:48 | 31.89524 | 34.92258 | 1119 ft | 97 kts | 307° |
| 2026-04-27 16:48 | 31.89897 | 34.91610 | 1091 ft | 95 kts | 305° |
| 2026-04-27 16:49 | 31.90557 | 34.90297 | 1205 ft | 95 kts | 299° |
| 2026-04-27 16:49 | 31.90814 | 34.89642 | 1136 ft | 100 kts | 290° |
| 2026-04-27 16:49 | 31.90970 | 34.88864 | 1132 ft | 97 kts | 303° |
| 2026-04-27 16:49 | 31.91356 | 34.89232 | 1112 ft | 113 kts | 103° |
| 2026-04-27 16:50 | 31.91029 | 34.90073 | 1134 ft | 112 kts | 116° |
| 2026-04-27 16:50 | 31.90667 | 34.90884 | 1209 ft | 112 kts | 117° |
| 2026-04-27 16:50 | 31.90290 | 34.91695 | 1239 ft | 114 kts | 118° |
| 2026-04-27 16:50 | 31.89918 | 34.92529 | 1256 ft | 115 kts | 114° |
| 2026-04-27 16:51 | 31.89547 | 34.93377 | 1280 ft | 119 kts | 115° |
| 2026-04-27 16:51 | 31.89197 | 34.94272 | 1324 ft | 119 kts | 109° |
| 2026-04-27 16:51 | 31.88866 | 34.95156 | 1373 ft | 120 kts | 111° |
| 2026-04-27 16:51 | 31.88543 | 34.96074 | 1380 ft | 121 kts | 106° |
| 2026-04-27 16:52 | 31.88329 | 34.97036 | 1350 ft | 120 kts | 102° |
| 2026-04-27 16:52 | 31.88130 | 34.97975 | 1355 ft | 118 kts | 99° |
| 2026-04-27 16:52 | 31.87932 | 34.98915 | 1384 ft | 117 kts | 98° |
| 2026-04-27 16:52 | 31.87835 | 34.99856 | 1464 ft | 114 kts | 90° |
| 2026-04-27 16:53 | 31.87771 | 35.00766 | 1543 ft | 110 kts | 92° |
| 2026-04-27 16:53 | 31.87684 | 35.01660 | 1586 ft | 111 kts | 89° |
| 2026-04-27 16:53 | 31.87763 | 35.02515 | 1563 ft | 105 kts | 52° |
| 2026-04-27 16:53 | 31.88389 | 35.02819 | 1563 ft | 98 kts | 359° |
| 2026-04-27 16:54 | 31.89078 | 35.02831 | 1486 ft | 100 kts | 354° |
| 2026-04-27 16:54 | 31.89777 | 35.02803 | 1458 ft | 100 kts | 355° |
| 2026-04-27 16:54 | 31.90465 | 35.02785 | 1499 ft | 99 kts | 355° |
| 2026-04-27 16:54 | 31.91133 | 35.02781 | 1561 ft | 92 kts | 355° |
| 2026-04-27 16:55 | 31.91797 | 35.02750 | 1583 ft | 98 kts | 354° |
| 2026-04-27 16:55 | 31.92510 | 35.02720 | 1566 ft | 103 kts | 357° |
| 2026-04-27 16:55 | 31.93221 | 35.02714 | 1559 ft | 104 kts | 357° |
| 2026-04-27 16:55 | 31.93965 | 35.02701 | 1526 ft | 106 kts | 0° |
| 2026-04-27 16:56 | 31.94680 | 35.02768 | 1595 ft | 102 kts | 2° |
| 2026-04-27 16:56 | 31.95385 | 35.02872 | 1580 ft | 103 kts | 7° |
| 2026-04-27 16:56 | 31.96095 | 35.02998 | 1677 ft | 103 kts | 7° |
| 2026-04-27 16:56 | 31.96819 | 35.03086 | 1595 ft | 107 kts | 359° |
| 2026-04-27 16:57 | 31.97561 | 35.03157 | 1506 ft | 104 kts | 4° |
| 2026-04-27 16:57 | 31.98261 | 35.03239 | 1494 ft | 101 kts | 4° |
| 2026-04-27 16:57 | 31.98956 | 35.03288 | 1502 ft | 103 kts | 3° |
| 2026-04-27 16:57 | 31.99703 | 35.03351 | 1371 ft | 109 kts | 1° |
| 2026-04-27 16:58 | 32.00439 | 35.03398 | 1484 ft | 104 kts | 2° |
| 2026-04-27 16:58 | 32.01156 | 35.03436 | 1470 ft | 102 kts | 360° |
| 2026-04-27 16:58 | 32.01868 | 35.03464 | 1502 ft | 102 kts | 358° |
| 2026-04-27 16:58 | 32.02559 | 35.03300 | 1455 ft | 102 kts | 339° |
| 2026-04-27 16:59 | 32.03235 | 35.03055 | 1360 ft | 99 kts | 341° |
| 2026-04-27 16:59 | 32.03871 | 35.02803 | 1397 ft | 97 kts | 337° |
| 2026-04-27 16:59 | 32.04492 | 35.02551 | 1490 ft | 97 kts | 339° |
| 2026-04-27 16:59 | 32.05133 | 35.02293 | 1501 ft | 97 kts | 342° |
| 2026-04-27 17:00 | 32.06002 | 35.01955 | 1554 ft | 101 kts | 340° |
| 2026-04-27 17:00 | 32.07096 | 35.01487 | 1560 ft | 102 kts | 339° |
| 2026-04-27 17:00 | 32.07761 | 35.01192 | 1598 ft | 102 kts | 339° |
| 2026-04-27 17:01 | 32.08450 | 35.00929 | 1601 ft | 104 kts | 341° |
| 2026-04-27 17:01 | 32.09139 | 35.00667 | 1564 ft | 106 kts | 342° |
| 2026-04-27 17:01 | 32.09843 | 35.00398 | 1560 ft | 106 kts | 341° |
| 2026-04-27 17:01 | 32.10523 | 35.00106 | 1613 ft | 103 kts | 338° |
| 2026-04-27 17:02 | 32.11189 | 34.99764 | 1586 ft | 104 kts | 336° |
| 2026-04-27 17:02 | 32.11840 | 34.99390 | 1597 ft | 104 kts | 329° |
| 2026-04-27 17:02 | 32.12473 | 34.98940 | 1544 ft | 104 kts | 326° |
| 2026-04-27 17:02 | 32.13094 | 34.98471 | 1434 ft | 109 kts | 317° |
| 2026-04-27 17:03 | 32.13589 | 34.97818 | 1250 ft | 109 kts | 310° |
| 2026-04-27 17:03 | 32.14112 | 34.97162 | 1111 ft | 109 kts | 313° |
| 2026-04-27 17:03 | 32.14532 | 34.96796 | 1013 ft | 111 kts | 328° |
| 2026-04-27 17:03 | 32.15527 | 34.96457 | 913 ft | 113 kts | 341° |
| 2026-04-27 17:04 | 32.16283 | 34.96244 | 891 ft | 110 kts | 344° |
| 2026-04-27 17:04 | 32.17028 | 34.96073 | 896 ft | 105 kts | 347° |
| 2026-04-27 17:04 | 32.17760 | 34.95938 | 817 ft | 107 kts | 347° |
| 2026-04-27 17:04 | 32.18247 | 34.95831 | 771 ft | 108 kts | 343° |
| 2026-04-27 17:05 | 32.18989 | 34.95705 | 783 ft | 107 kts | 353° |
| 2026-04-27 17:05 | 32.19736 | 34.95747 | 771 ft | 108 kts | 3° |
| 2026-04-27 17:05 | 32.20468 | 34.95907 | 813 ft | 103 kts | 354° |
| 2026-04-27 17:05 | 32.21152 | 34.95709 | 896 ft | 102 kts | 332° |
| 2026-04-27 17:06 | 32.21770 | 34.95272 | 945 ft | 106 kts | 325° |
| 2026-04-27 17:06 | 32.22389 | 34.94789 | 933 ft | 109 kts | 323° |
| 2026-04-27 17:06 | 32.22975 | 34.94233 | 943 ft | 109 kts | 319° |
| 2026-04-27 17:06 | 32.23583 | 34.93641 | 823 ft | 114 kts | 320° |
| 2026-04-27 17:07 | 32.24186 | 34.93028 | 746 ft | 111 kts | 314° |
| 2026-04-27 17:07 | 32.24643 | 34.92312 | 743 ft | 107 kts | 303° |
| 2026-04-27 17:07 | 32.25056 | 34.91581 | 631 ft | 112 kts | 302° |
| 2026-04-27 17:07 | 32.25467 | 34.90811 | 511 ft | 112 kts | 298° |
| 2026-04-27 17:08 | 32.25726 | 34.89969 | 451 ft | 108 kts | 276° |
| 2026-04-27 17:08 | 32.25770 | 34.89099 | 448 ft | 102 kts | 274° |
| 2026-04-27 17:08 | 32.25810 | 34.88279 | 453 ft | 101 kts | 272° |
| 2026-04-27 17:08 | 32.25825 | 34.87444 | 474 ft | 102 kts | 271° |
| 2026-04-27 17:09 | 32.25897 | 34.86578 | 424 ft | 108 kts | 278° |
| 2026-04-27 17:09 | 32.25976 | 34.85719 | 418 ft | 107 kts | 275° |
| 2026-04-27 17:09 | 32.25901 | 34.84906 | 474 ft | 103 kts | 221° |
| 2026-04-27 17:09 | 32.25124 | 34.84806 | 305 ft | 116 kts | 180° |
| 2026-04-27 17:10 | 32.24337 | 34.84833 | 255 ft | 113 kts | 176° |
| 2026-04-27 17:10 | 32.23558 | 34.84869 | 212 ft | 113 kts | 178° |
| 2026-04-27 17:10 | 32.22785 | 34.84939 | 247 ft | 109 kts | 174° |
| 2026-04-27 17:10 | 32.22162 | 34.84841 | 308 ft | 74 kts | 275° |
| 2026-04-27 17:11 | 32.22598 | 34.84885 | 34 ft | 79 kts | 24° |
| 2026-04-27 17:11 | 32.22561 | 34.84587 | 237 ft | 84 kts | 202° |
| 2026-04-27 17:11 | 32.22556 | 34.84862 | 55 ft | 73 kts | 22° |
| 2026-04-27 17:12 | 32.23479 | 34.84956 | 301 ft | 76 kts | 317° |
| 2026-04-27 17:12 | 32.23845 | 34.84447 | 352 ft | 91 kts | 310° |
| 2026-04-27 17:12 | 32.24266 | 34.83847 | 425 ft | 96 kts | 310° |
| 2026-04-27 17:13 | 32.24696 | 34.83238 | 469 ft | 99 kts | 308° |
| 2026-04-27 17:13 | 32.25152 | 34.82608 | 496 ft | 101 kts | 303° |
| 2026-04-27 17:13 | 32.25041 | 34.81926 | 500 ft | 108 kts | 206° |
| 2026-04-27 17:13 | 32.24272 | 34.81716 | 383 ft | 113 kts | 192° |
| 2026-04-27 17:14 | 32.23513 | 34.81556 | 355 ft | 109 kts | 193° |
| 2026-04-27 17:14 | 32.22801 | 34.81354 | 409 ft | 102 kts | 196° |
| 2026-04-27 17:14 | 32.22108 | 34.81152 | 433 ft | 104 kts | 196° |
| 2026-04-27 17:14 | 32.21410 | 34.80887 | 439 ft | 104 kts | 202° |
| 2026-04-27 17:15 | 32.20728 | 34.80581 | 426 ft | 107 kts | 205° |
| 2026-04-27 17:15 | 32.20023 | 34.80261 | 398 ft | 108 kts | 201° |
| 2026-04-27 17:15 | 32.19320 | 34.79988 | 371 ft | 106 kts | 201° |
| 2026-04-27 17:15 | 32.18628 | 34.79730 | 413 ft | 104 kts | 200° |
| 2026-04-27 17:16 | 32.17935 | 34.79454 | 388 ft | 106 kts | 202° |
| 2026-04-27 17:16 | 32.17228 | 34.79161 | 363 ft | 106 kts | 201° |
| 2026-04-27 17:16 | 32.16552 | 34.78868 | 412 ft | 104 kts | 202° |
| 2026-04-27 17:16 | 32.15865 | 34.78600 | 415 ft | 104 kts | 199° |
| 2026-04-27 17:17 | 32.15161 | 34.78348 | 386 ft | 107 kts | 198° |
| 2026-04-27 17:17 | 32.14471 | 34.78065 | 451 ft | 103 kts | 200° |
| 2026-04-27 17:17 | 32.13770 | 34.77785 | 453 ft | 108 kts | 199° |
| 2026-04-27 17:18 | 32.12342 | 34.77208 | 464 ft | 109 kts | 200° |
| 2026-04-27 17:18 | 32.11621 | 34.76898 | 410 ft | 113 kts | 202° |
| 2026-04-27 17:18 | 32.10895 | 34.76570 | 395 ft | 110 kts | 202° |
| 2026-04-27 17:18 | 32.10180 | 34.76272 | 375 ft | 110 kts | 201° |
| 2026-04-27 17:19 | 32.09466 | 34.75954 | 385 ft | 110 kts | 201° |
| 2026-04-27 17:19 | 32.08747 | 34.75646 | 386 ft | 111 kts | 200° |
| 2026-04-27 17:19 | 32.08015 | 34.75363 | 366 ft | 109 kts | 199° |
| 2026-04-27 17:19 | 32.07297 | 34.75105 | 385 ft | 108 kts | 198° |
| 2026-04-27 17:20 | 32.06572 | 34.74851 | 343 ft | 110 kts | 197° |
| 2026-04-27 17:20 | 32.05844 | 34.74585 | 372 ft | 106 kts | 198° |
| 2026-04-27 17:20 | 32.05141 | 34.74370 | 418 ft | 103 kts | 195° |
| 2026-04-27 17:20 | 32.04453 | 34.74142 | 462 ft | 105 kts | 197° |
| 2026-04-27 17:21 | 32.03743 | 34.73910 | 444 ft | 107 kts | 198° |
| 2026-04-27 17:21 | 32.03016 | 34.73686 | 413 ft | 111 kts | 195° |
| 2026-04-27 17:21 | 32.02262 | 34.73421 | 383 ft | 111 kts | 199° |
| 2026-04-27 17:21 | 32.01544 | 34.73156 | 408 ft | 109 kts | 200° |
| 2026-04-27 17:22 | 32.00824 | 34.72937 | 396 ft | 105 kts | 189° |
| 2026-04-27 17:22 | 32.00086 | 34.72881 | 383 ft | 106 kts | 185° |
| 2026-04-27 17:22 | 31.99367 | 34.73040 | 404 ft | 106 kts | 156° |
| 2026-04-27 17:22 | 31.98710 | 34.73423 | 445 ft | 101 kts | 154° |
| 2026-04-27 17:23 | 31.98101 | 34.73776 | 488 ft | 94 kts | 153° |
| 2026-04-27 17:23 | 31.97572 | 34.74227 | 485 ft | 94 kts | 151° |
| 2026-04-27 17:23 | 31.96939 | 34.74322 | 457 ft | 95 kts | 182° |
| 2026-04-27 17:23 | 31.96312 | 34.74330 | 353 ft | 80 kts | 180° |
| 2026-04-27 17:24 | 31.95719 | 34.74304 | 339 ft | 89 kts | 184° |
| 2026-04-27 17:24 | 31.95256 | 34.74626 | 417 ft | 83 kts | 107° |
| 2026-04-27 17:24 | 31.95195 | 34.75214 | 375 ft | 58 kts | 59° |
| 2026-04-27 17:24 | 31.95512 | 34.75356 | 323 ft | 50 kts | 355° |
| 2026-04-27 17:25 | 31.95888 | 34.75357 | 248 ft | 58 kts | 354° |
| 2026-04-27 17:25 | 31.96309 | 34.75357 | 100 ft | 60 kts | 0° |
| 2026-04-27 17:25 | 31.96642 | 34.75357 | 61 ft | 37 kts | 0° |
| 2026-04-27 17:25 | 31.96779 | 34.75334 | 63 ft | 18 kts | 358° |
| 2026-04-27 17:26 | 31.96868 | 34.75354 | 62 ft | 6 kts | 91° |
| 2026-04-27 17:26 | 31.96898 | 34.75383 | 65 ft | 6 kts | 358° |
| 2026-04-27 17:26 | 31.96937 | 34.75382 | 63 ft | 1 kts | 6° |
| 2026-04-27 17:27 | 31.96944 | 34.75382 | 65 ft | 4 kts | 343° |
| 2026-04-27 17:27 | 31.96909 | 34.75344 | 60 ft | 15 kts | 182° |
| 2026-04-27 17:27 | 31.96837 | 34.75328 | 60 ft | 1 kts | 260° |
| 2026-04-27 17:28 | 31.96854 | 34.75325 | 62 ft | 0 kts | 136° |